createdAt,value
2022-12-18T00:00:20.011Z,83.93
2022-12-18T00:01:24.113Z,84.45
2022-12-18T00:02:14.846Z,84.45
2022-12-18T00:03:38.681Z,85.09
2022-12-18T00:04:14.774Z,85.30
2022-12-18T00:05:13.615Z,85.19
2022-12-18T00:06:13.612Z,85.41
2022-12-18T00:07:13.617Z,85.09
2022-12-18T00:08:13.562Z,85.61
2022-12-18T00:09:13.535Z,85.09
2022-12-18T00:10:15.474Z,85.72
2022-12-18T00:11:13.563Z,84.98
2022-12-18T00:13:13.494Z,85.41
2022-12-18T00:14:13.456Z,85.72
2022-12-18T00:15:13.472Z,85.09
2022-12-18T00:16:13.464Z,85.61
2022-12-18T00:17:13.436Z,85.83
2022-12-18T00:18:16.081Z,85.72
2022-12-18T00:19:15.363Z,84.98
2022-12-18T00:20:13.342Z,85.72
2022-12-18T00:21:13.350Z,85.61
2022-12-18T00:22:13.355Z,85.51
2022-12-18T00:23:13.324Z,85.19
2022-12-18T00:24:13.283Z,85.30
2022-12-18T00:25:13.281Z,86.25
2022-12-18T00:26:13.255Z,86.50
2022-12-18T00:27:14.271Z,85.76
2022-12-18T00:28:13.248Z,86.29
2022-12-18T00:29:13.223Z,86.46
2022-12-18T00:30:13.175Z,85.97
2022-12-18T00:31:13.228Z,85.97
2022-12-18T00:32:13.171Z,86.35
2022-12-18T00:33:13.139Z,86.15
2022-12-18T00:34:13.129Z,86.40
2022-12-18T00:35:13.104Z,85.97
2022-12-18T00:36:13.071Z,86.57
2022-12-18T00:37:18.283Z,85.97
2022-12-18T00:38:15.038Z,85.83
2022-12-18T00:39:13.031Z,86.29
2022-12-18T00:40:13.014Z,86.08
2022-12-18T00:41:13.037Z,86.25
2022-12-18T00:42:13.075Z,86.18
2022-12-18T00:43:12.963Z,86.25
2022-12-18T00:44:12.947Z,86.50
2022-12-18T00:45:13.429Z,86.71
2022-12-18T00:46:13.964Z,86.18
2022-12-18T00:47:12.921Z,86.71
2022-12-18T00:48:12.906Z,85.93
2022-12-18T00:49:12.890Z,86.04
2022-12-18T00:50:12.841Z,85.97
2022-12-18T00:51:12.852Z,86.25
2022-12-18T00:52:12.852Z,86.82
2022-12-18T00:53:12.794Z,86.71
2022-12-18T00:54:12.772Z,87.13
2022-12-18T00:55:15.270Z,86.08
2022-12-18T00:56:12.737Z,86.25
2022-12-18T00:57:12.743Z,86.18
2022-12-18T00:58:12.700Z,86.46
2022-12-18T00:59:12.697Z,86.57
2022-12-18T01:00:12.706Z,86.60
2022-12-18T01:01:12.676Z,87.24
2022-12-18T01:02:12.902Z,86.82
2022-12-18T01:03:12.676Z,87.03
2022-12-18T01:04:12.599Z,86.71
2022-12-18T01:05:12.582Z,86.92
2022-12-18T01:06:12.588Z,87.87
2022-12-18T01:07:12.589Z,87.98
2022-12-18T01:08:12.739Z,87.77
2022-12-18T01:09:12.518Z,87.03
2022-12-18T01:10:12.511Z,87.13
2022-12-18T01:11:12.477Z,87.34
2022-12-18T01:12:12.493Z,87.24
2022-12-18T01:13:12.451Z,87.03
2022-12-18T01:14:12.434Z,86.92
2022-12-18T01:15:12.403Z,87.77
2022-12-18T01:16:12.470Z,86.92
2022-12-18T01:17:12.413Z,86.88
2022-12-18T01:18:12.356Z,86.82
2022-12-18T01:19:12.605Z,86.78
2022-12-18T01:20:12.325Z,87.30
2022-12-18T01:21:12.305Z,87.09
2022-12-18T01:22:12.344Z,86.57
2022-12-18T01:23:12.282Z,86.78
2022-12-18T01:24:12.349Z,86.67
2022-12-18T01:25:12.251Z,86.67
2022-12-18T01:26:12.217Z,86.57
2022-12-18T01:27:12.239Z,86.35
2022-12-18T01:28:12.191Z,86.15
2022-12-18T01:29:12.175Z,86.67
2022-12-18T01:30:12.156Z,86.25
2022-12-18T01:31:12.157Z,86.57
2022-12-18T01:32:12.194Z,86.04
2022-12-18T01:33:12.114Z,86.15
2022-12-18T01:34:12.120Z,86.25
2022-12-18T01:35:12.081Z,85.51
2022-12-18T01:36:12.043Z,85.30
2022-12-18T01:37:12.077Z,85.83
2022-12-18T01:38:12.028Z,85.51
2022-12-18T01:39:12.020Z,85.72
2022-12-18T01:40:11.984Z,85.41
2022-12-18T01:41:12.170Z,85.83
2022-12-18T01:42:11.968Z,86.25
2022-12-18T01:43:11.970Z,85.19
2022-12-18T01:44:11.943Z,85.34
2022-12-18T01:45:11.995Z,86.29
2022-12-18T01:46:11.966Z,86.15
2022-12-18T01:47:11.898Z,85.97
2022-12-18T01:48:11.844Z,86.92
2022-12-18T01:49:11.818Z,87.13
2022-12-18T01:50:11.812Z,88.19
2022-12-18T01:51:11.838Z,87.55
2022-12-18T01:52:12.814Z,87.60
2022-12-18T01:53:11.751Z,86.50
2022-12-18T01:54:11.803Z,86.92
2022-12-18T01:55:11.725Z,87.13
2022-12-18T01:56:11.730Z,87.77
2022-12-18T01:57:11.719Z,87.38
2022-12-18T01:58:11.663Z,87.60
2022-12-18T01:59:11.721Z,88.12
2022-12-18T02:00:11.632Z,87.49
2022-12-18T02:01:11.665Z,87.70
2022-12-18T02:02:11.789Z,88.12
2022-12-18T02:03:11.670Z,87.70
2022-12-18T02:04:11.555Z,87.49
2022-12-18T02:05:11.561Z,88.44
2022-12-18T02:06:11.615Z,87.70
2022-12-18T02:07:11.555Z,88.02
2022-12-18T02:08:11.500Z,88.44
2022-12-18T02:09:11.485Z,88.34
2022-12-18T02:10:11.469Z,88.37
2022-12-18T02:11:11.444Z,88.17
2022-12-18T02:12:11.461Z,87.92
2022-12-18T02:13:11.479Z,88.12
2022-12-18T02:14:11.409Z,88.12
2022-12-18T02:15:11.386Z,88.02
2022-12-18T02:16:11.415Z,88.44
2022-12-18T02:17:11.386Z,88.40
2022-12-18T02:18:11.339Z,87.70
2022-12-18T02:19:11.315Z,88.12
2022-12-18T02:20:11.301Z,88.23
2022-12-18T02:21:11.277Z,88.44
2022-12-18T02:22:11.313Z,87.81
2022-12-18T02:23:11.250Z,88.34
2022-12-18T02:24:11.225Z,88.44
2022-12-18T02:25:11.213Z,88.34
2022-12-18T02:26:11.193Z,88.02
2022-12-18T02:27:11.213Z,88.65
2022-12-18T02:28:11.151Z,88.54
2022-12-18T02:29:12.225Z,88.12
2022-12-18T02:30:11.129Z,87.92
2022-12-18T02:31:11.164Z,87.98
2022-12-18T02:32:11.128Z,88.65
2022-12-18T02:33:11.086Z,87.92
2022-12-18T02:34:11.069Z,88.12
2022-12-18T02:35:11.062Z,88.19
2022-12-18T02:36:11.031Z,88.40
2022-12-18T02:37:11.060Z,88.09
2022-12-18T02:38:11.016Z,88.51
2022-12-18T02:39:11.032Z,88.09
2022-12-18T02:40:11.035Z,88.29
2022-12-18T02:41:10.962Z,87.84
2022-12-18T02:42:10.971Z,88.09
2022-12-18T02:43:10.918Z,87.55
2022-12-18T02:44:10.897Z,87.45
2022-12-18T02:45:10.946Z,87.73
2022-12-18T02:46:10.897Z,87.55
2022-12-18T02:47:10.890Z,87.52
2022-12-18T02:48:10.836Z,87.66
2022-12-18T02:49:10.816Z,87.55
2022-12-18T02:50:10.809Z,87.66
2022-12-18T02:51:10.794Z,87.77
2022-12-18T02:52:10.802Z,87.52
2022-12-18T02:53:10.759Z,87.30
2022-12-18T02:54:10.734Z,87.09
2022-12-18T02:55:10.729Z,88.04
2022-12-18T02:56:10.706Z,87.84
2022-12-18T02:57:10.695Z,87.30
2022-12-18T02:58:10.703Z,87.41
2022-12-18T02:59:10.651Z,87.98
2022-12-18T03:00:10.631Z,87.52
2022-12-18T03:01:10.740Z,87.52
2022-12-18T03:02:10.768Z,87.09
2022-12-18T03:03:10.694Z,87.52
2022-12-18T03:04:10.583Z,87.41
2022-12-18T03:05:10.556Z,87.30
2022-12-18T03:06:10.544Z,87.87
2022-12-18T03:07:10.516Z,87.20
2022-12-18T03:08:10.527Z,87.41
2022-12-18T03:09:10.587Z,87.30
2022-12-18T03:10:10.475Z,86.88
2022-12-18T03:11:10.443Z,86.99
2022-12-18T03:12:10.430Z,86.57
2022-12-18T03:13:10.450Z,86.88
2022-12-18T03:14:10.403Z,86.88
2022-12-18T03:15:15.998Z,87.90
2022-12-18T03:16:12.456Z,87.27
2022-12-18T03:17:10.366Z,87.94
2022-12-18T03:18:10.370Z,86.99
2022-12-18T03:19:10.338Z,88.04
2022-12-18T03:20:10.317Z,87.37
2022-12-18T03:21:10.291Z,87.90
2022-12-18T03:22:10.267Z,87.27
2022-12-18T03:23:10.317Z,87.02
2022-12-18T03:24:10.237Z,86.32
2022-12-18T03:25:10.220Z,87.12
2022-12-18T03:26:10.215Z,87.58
2022-12-18T03:27:10.183Z,86.59
2022-12-18T03:28:10.196Z,86.91
2022-12-18T03:29:10.178Z,87.86
2022-12-18T03:30:10.143Z,87.27
2022-12-18T03:31:10.145Z,87.54
2022-12-18T03:32:10.179Z,87.37
2022-12-18T03:33:10.115Z,87.54
2022-12-18T03:34:10.068Z,87.12
2022-12-18T03:35:10.053Z,87.02
2022-12-18T03:36:10.044Z,86.80
2022-12-18T03:37:10.035Z,86.07
2022-12-18T03:38:10.042Z,85.96
2022-12-18T03:39:10.009Z,85.96
2022-12-18T03:40:09.970Z,86.07
2022-12-18T03:41:09.959Z,86.28
2022-12-18T03:42:09.930Z,86.07
2022-12-18T03:43:09.954Z,85.96
2022-12-18T03:44:09.912Z,86.00
2022-12-18T03:45:09.887Z,86.00
2022-12-18T03:46:09.962Z,85.96
2022-12-18T03:47:09.865Z,86.32
2022-12-18T03:48:09.940Z,86.00
2022-12-18T03:49:09.820Z,86.10
2022-12-18T03:50:12.816Z,85.89
2022-12-18T03:51:10.803Z,85.96
2022-12-18T03:52:09.781Z,86.21
2022-12-18T03:53:09.794Z,86.63
2022-12-18T03:54:09.744Z,86.95
2022-12-18T03:55:09.734Z,86.84
2022-12-18T03:56:09.712Z,86.88
2022-12-18T03:57:09.689Z,86.84
2022-12-18T03:58:09.712Z,86.32
2022-12-18T03:59:09.668Z,86.95
2022-12-18T04:00:09.648Z,87.16
2022-12-18T04:01:09.696Z,87.48
2022-12-18T04:02:09.705Z,87.79
2022-12-18T04:03:09.664Z,86.63
2022-12-18T04:04:09.789Z,87.05
2022-12-18T04:05:09.568Z,85.89
2022-12-18T04:06:09.541Z,85.89
2022-12-18T04:07:09.527Z,86.21
2022-12-18T04:08:09.537Z,85.89
2022-12-18T04:09:09.491Z,85.68
2022-12-18T04:10:09.474Z,86.04
2022-12-18T04:11:09.459Z,86.00
2022-12-18T04:12:09.456Z,86.21
2022-12-18T04:13:09.468Z,85.68
2022-12-18T04:14:14.434Z,85.47
2022-12-18T04:15:11.393Z,85.79
2022-12-18T04:16:09.458Z,85.26
2022-12-18T04:17:09.357Z,86.00
2022-12-18T04:18:09.469Z,86.46
2022-12-18T04:19:09.366Z,85.93
2022-12-18T04:20:09.391Z,86.67
2022-12-18T04:21:09.319Z,86.88
2022-12-18T04:22:09.284Z,87.09
2022-12-18T04:23:09.297Z,87.05
2022-12-18T04:24:09.251Z,87.94
2022-12-18T04:25:09.238Z,86.84
2022-12-18T04:26:09.215Z,86.95
2022-12-18T04:27:09.211Z,86.53
2022-12-18T04:28:09.213Z,86.74
2022-12-18T04:29:09.166Z,86.21
2022-12-18T04:30:09.149Z,85.47
2022-12-18T04:31:09.194Z,85.26
2022-12-18T04:32:09.115Z,84.31
2022-12-18T04:33:09.221Z,84.03
2022-12-18T04:34:09.080Z,84.45
2022-12-18T04:35:09.067Z,84.56
2022-12-18T04:36:09.138Z,85.51
2022-12-18T04:37:09.042Z,85.72
2022-12-18T04:38:09.066Z,86.67
2022-12-18T04:39:09.004Z,86.88
2022-12-18T04:40:08.994Z,86.78
2022-12-18T04:41:08.968Z,87.09
2022-12-18T04:42:08.949Z,87.09
2022-12-18T04:43:08.996Z,87.30
2022-12-18T04:44:08.927Z,86.21
2022-12-18T04:45:08.920Z,85.89
2022-12-18T04:46:08.976Z,86.15
2022-12-18T04:47:08.881Z,86.04
2022-12-18T04:48:08.892Z,86.25
2022-12-18T04:49:08.907Z,86.00
2022-12-18T04:50:08.832Z,86.04
2022-12-18T04:51:08.811Z,85.51
2022-12-18T04:52:08.947Z,85.51
2022-12-18T04:53:08.823Z,85.51
2022-12-18T04:54:09.763Z,86.35
2022-12-18T04:55:08.739Z,85.83
2022-12-18T04:56:08.738Z,86.25
2022-12-18T04:57:08.748Z,86.15
2022-12-18T04:58:08.719Z,86.15
2022-12-18T04:59:08.681Z,86.15
2022-12-18T05:00:08.665Z,86.25
2022-12-18T05:01:08.657Z,85.93
2022-12-18T05:02:08.708Z,85.51
2022-12-18T05:03:08.636Z,84.98
2022-12-18T05:04:08.660Z,85.30
2022-12-18T05:05:08.571Z,85.51
2022-12-18T05:06:08.560Z,86.25
2022-12-18T05:07:08.530Z,86.25
2022-12-18T05:08:09.625Z,85.93
2022-12-18T05:09:09.499Z,85.93
2022-12-18T05:10:08.515Z,86.67
2022-12-18T05:11:08.491Z,86.04
2022-12-18T05:12:08.457Z,86.46
2022-12-18T05:13:08.477Z,86.25
2022-12-18T05:14:08.480Z,85.93
2022-12-18T05:15:08.418Z,86.04
2022-12-18T05:16:08.463Z,86.04
2022-12-18T05:17:08.404Z,85.72
2022-12-18T05:18:08.387Z,85.51
2022-12-18T05:19:08.347Z,85.51
2022-12-18T05:20:08.352Z,86.15
2022-12-18T05:21:08.313Z,85.51
2022-12-18T05:22:08.319Z,85.41
2022-12-18T05:23:08.319Z,86.04
2022-12-18T05:24:08.336Z,86.35
2022-12-18T05:25:08.255Z,85.93
2022-12-18T05:26:08.234Z,85.51
2022-12-18T05:27:08.208Z,85.41
2022-12-18T05:28:08.214Z,85.83
2022-12-18T05:29:08.171Z,85.72
2022-12-18T05:30:08.191Z,86.15
2022-12-18T05:31:08.188Z,86.04
2022-12-18T05:32:08.121Z,86.15
2022-12-18T05:33:08.136Z,85.93
2022-12-18T05:34:08.093Z,86.57
2022-12-18T05:35:08.067Z,86.35
2022-12-18T05:36:08.059Z,85.93
2022-12-18T05:37:08.047Z,85.93
2022-12-18T05:38:08.057Z,85.76
2022-12-18T05:39:08.009Z,85.72
2022-12-18T05:40:08.056Z,85.44
2022-12-18T05:41:07.970Z,85.66
2022-12-18T05:42:07.953Z,85.19
2022-12-18T05:43:07.980Z,85.41
2022-12-18T05:44:07.948Z,85.61
2022-12-18T05:45:07.904Z,85.83
2022-12-18T05:46:07.924Z,85.34
2022-12-18T05:47:07.865Z,85.55
2022-12-18T05:48:07.883Z,85.41
2022-12-18T05:49:07.934Z,85.51
2022-12-18T05:50:07.828Z,85.55
2022-12-18T05:51:07.812Z,85.83
2022-12-18T05:52:07.801Z,86.08
2022-12-18T05:53:07.809Z,85.76
2022-12-18T05:54:07.758Z,85.34
2022-12-18T05:55:07.738Z,85.34
2022-12-18T05:56:07.792Z,85.44
2022-12-18T05:57:07.708Z,86.29
2022-12-18T05:58:07.694Z,86.08
2022-12-18T05:59:07.713Z,86.18
2022-12-18T06:00:07.661Z,86.18
2022-12-18T06:01:07.640Z,86.08
2022-12-18T06:02:07.706Z,86.08
2022-12-18T06:03:07.644Z,86.18
2022-12-18T06:04:07.641Z,86.08
2022-12-18T06:05:07.574Z,86.11
2022-12-18T06:06:07.551Z,86.01
2022-12-18T06:07:07.541Z,86.01
2022-12-18T06:08:07.519Z,86.11
2022-12-18T06:09:07.541Z,85.69
2022-12-18T06:10:07.485Z,85.27
2022-12-18T06:11:07.465Z,85.80
2022-12-18T06:12:07.521Z,85.69
2022-12-18T06:13:07.435Z,86.22
2022-12-18T06:14:07.489Z,85.38
2022-12-18T06:15:07.402Z,85.59
2022-12-18T06:16:07.471Z,86.01
2022-12-18T06:17:07.372Z,85.06
2022-12-18T06:18:07.359Z,86.33
2022-12-18T06:19:07.374Z,85.06
2022-12-18T06:20:07.327Z,85.38
2022-12-18T06:21:07.311Z,85.41
2022-12-18T06:22:07.294Z,85.48
2022-12-18T06:23:07.270Z,85.94
2022-12-18T06:24:07.296Z,85.52
2022-12-18T06:25:07.231Z,85.31
2022-12-18T06:26:08.228Z,85.27
2022-12-18T06:27:07.208Z,85.52
2022-12-18T06:28:07.256Z,85.31
2022-12-18T06:29:07.199Z,85.31
2022-12-18T06:30:07.163Z,85.84
2022-12-18T06:31:07.230Z,85.73
2022-12-18T06:32:07.121Z,85.41
2022-12-18T06:33:07.109Z,85.41
2022-12-18T06:34:07.121Z,85.31
2022-12-18T06:35:07.082Z,85.41
2022-12-18T06:36:07.050Z,85.31
2022-12-18T06:37:07.035Z,85.63
2022-12-18T06:38:07.027Z,85.31
2022-12-18T06:39:07.049Z,85.31
2022-12-18T06:40:07.005Z,85.41
2022-12-18T06:41:06.969Z,85.41
2022-12-18T06:42:06.962Z,85.63
2022-12-18T06:43:06.939Z,85.41
2022-12-18T06:44:07.026Z,85.27
2022-12-18T06:45:06.910Z,85.16
2022-12-18T06:46:06.943Z,84.89
2022-12-18T06:47:06.875Z,85.21
2022-12-18T06:48:06.856Z,86.05
2022-12-18T06:49:06.876Z,85.59
2022-12-18T06:50:06.817Z,85.73
2022-12-18T06:51:06.822Z,85.94
2022-12-18T06:52:06.793Z,85.41
2022-12-18T06:53:06.780Z,84.84
2022-12-18T06:54:06.790Z,85.06
2022-12-18T06:55:06.745Z,84.84
2022-12-18T06:56:38.590Z,84.53
2022-12-18T06:57:06.706Z,84.42
2022-12-18T06:58:06.707Z,84.22
2022-12-18T06:59:06.726Z,84.22
2022-12-18T07:00:06.743Z,84.11
2022-12-18T07:01:06.709Z,84.22
2022-12-18T07:02:06.756Z,83.90
2022-12-18T07:03:06.633Z,84.22
2022-12-18T07:04:06.620Z,84.64
2022-12-18T07:05:10.773Z,84.60
2022-12-18T07:06:07.557Z,84.22
2022-12-18T07:07:06.538Z,84.42
2022-12-18T07:08:06.522Z,84.42
2022-12-18T07:09:06.542Z,84.11
2022-12-18T07:10:06.543Z,84.49
2022-12-18T07:11:06.492Z,84.39
2022-12-18T07:12:06.462Z,84.07
2022-12-18T07:13:06.449Z,83.65
2022-12-18T07:14:06.458Z,83.40
2022-12-18T07:15:06.408Z,83.50
2022-12-18T07:16:10.921Z,83.29
2022-12-18T07:17:08.394Z,82.87
2022-12-18T07:18:06.358Z,82.34
2022-12-18T07:19:06.374Z,82.56
2022-12-18T07:20:06.325Z,82.56
2022-12-18T07:21:06.309Z,82.87
2022-12-18T07:22:06.306Z,82.66
2022-12-18T07:23:06.276Z,82.98
2022-12-18T07:24:06.294Z,82.76
2022-12-18T07:25:06.243Z,82.73
2022-12-18T07:26:06.234Z,82.76
2022-12-18T07:27:06.213Z,82.66
2022-12-18T07:28:06.195Z,82.56
2022-12-18T07:29:06.208Z,82.98
2022-12-18T07:30:06.167Z,82.34
2022-12-18T07:31:06.163Z,82.45
2022-12-18T07:32:07.259Z,81.71
2022-12-18T07:33:06.112Z,82.41
2022-12-18T07:34:06.210Z,82.03
2022-12-18T07:35:06.095Z,81.63
2022-12-18T07:36:06.053Z,81.46
2022-12-18T07:37:06.075Z,80.69
2022-12-18T07:38:06.028Z,80.05
2022-12-18T07:39:06.177Z,79.91
2022-12-18T07:40:05.999Z,80.02
2022-12-18T07:41:06.737Z,79.38
2022-12-18T07:42:05.965Z,78.96
2022-12-18T07:43:05.966Z,79.17
2022-12-18T07:44:05.970Z,79.38
2022-12-18T07:45:05.927Z,78.92
2022-12-18T07:46:05.941Z,79.14
2022-12-18T07:47:10.531Z,79.21
2022-12-18T07:48:07.931Z,78.26
2022-12-18T07:49:05.883Z,77.91
2022-12-18T07:50:05.843Z,77.35
2022-12-18T07:51:05.798Z,76.89
2022-12-18T07:52:05.792Z,75.91
2022-12-18T07:53:05.820Z,75.00
2022-12-18T07:54:05.818Z,72.94
2022-12-18T07:55:05.732Z,71.72
2022-12-18T07:56:26.406Z,71.23
2022-12-18T07:57:21.316Z,69.07
2022-12-18T07:58:07.692Z,68.28
2022-12-18T07:59:05.701Z,67.35
2022-12-18T08:00:05.681Z,66.80
2022-12-18T08:01:05.661Z,62.88
2022-12-18T08:02:05.755Z,61.52
2022-12-18T08:03:05.610Z,63.45
2022-12-18T08:04:05.743Z,60.82
2022-12-18T08:05:05.559Z,59.44
2022-12-18T08:06:05.546Z,58.58
2022-12-18T08:07:05.550Z,57.82
2022-12-18T08:08:05.514Z,58.39
2022-12-18T08:09:05.514Z,56.23
2022-12-18T08:10:05.513Z,56.21
2022-12-18T08:11:05.471Z,55.12
2022-12-18T08:12:05.450Z,53.25
2022-12-18T08:13:05.486Z,53.75
2022-12-18T08:14:05.413Z,53.20
2022-12-18T08:15:05.447Z,53.10
2022-12-18T08:16:05.375Z,52.79
2022-12-18T08:17:05.454Z,53.28
2022-12-18T08:18:08.062Z,52.50
2022-12-18T08:19:05.332Z,53.04
2022-12-18T08:20:05.411Z,53.28
2022-12-18T08:21:05.320Z,54.86
2022-12-18T08:22:05.281Z,54.96
2022-12-18T08:23:05.254Z,55.27
2022-12-18T08:24:05.255Z,55.04
2022-12-18T08:25:05.260Z,54.99
2022-12-18T08:26:05.219Z,55.63
2022-12-18T08:27:34.624Z,55.32
2022-12-18T08:28:07.176Z,55.87
2022-12-18T08:29:05.179Z,56.78
2022-12-18T08:30:05.212Z,56.10
2022-12-18T08:31:05.239Z,55.22
2022-12-18T08:32:05.161Z,55.19
2022-12-18T08:33:05.119Z,55.17
2022-12-18T08:34:05.108Z,55.04
2022-12-18T08:35:05.090Z,53.23
2022-12-18T08:36:06.131Z,53.23
2022-12-18T08:37:05.034Z,52.81
2022-12-18T08:38:04.998Z,53.02
2022-12-18T08:39:05.992Z,52.71
2022-12-18T08:40:05.006Z,51.54
2022-12-18T08:41:04.959Z,51.44
2022-12-18T08:42:09.854Z,51.10
2022-12-18T08:43:06.930Z,51.10
2022-12-18T08:44:04.913Z,52.33
2022-12-18T08:45:04.936Z,51.29
2022-12-18T08:46:04.912Z,50.90
2022-12-18T08:47:04.861Z,51.70
2022-12-18T08:48:04.856Z,51.37
2022-12-18T08:49:04.824Z,50.70
2022-12-18T08:50:04.922Z,49.77
2022-12-18T08:51:04.797Z,50.51
2022-12-18T08:52:04.849Z,49.77
2022-12-18T08:53:04.759Z,49.22
2022-12-18T08:54:04.738Z,48.71
2022-12-18T08:55:04.752Z,48.79
2022-12-18T08:56:04.712Z,47.03
2022-12-18T08:57:04.715Z,47.81
2022-12-18T08:58:04.683Z,47.69
2022-12-18T08:59:04.657Z,46.84
2022-12-18T09:00:04.685Z,44.95
2022-12-18T09:01:04.685Z,44.49
2022-12-18T09:02:04.785Z,44.08
2022-12-18T09:03:04.647Z,42.82
2022-12-18T09:04:04.576Z,44.10
2022-12-18T09:05:04.602Z,44.57
2022-12-18T09:06:04.540Z,46.11
2022-12-18T09:07:04.534Z,46.72
2022-12-18T09:08:04.576Z,48.44
2022-12-18T09:09:04.513Z,48.80
2022-12-18T09:10:04.503Z,49.65
2022-12-18T09:11:04.460Z,50.07
2022-12-18T09:12:04.455Z,49.94
2022-12-18T09:13:04.430Z,50.02
2022-12-18T09:14:04.424Z,49.76
2022-12-18T09:15:04.539Z,50.65
2022-12-18T09:16:04.396Z,51.90
2022-12-18T09:17:04.451Z,52.21
2022-12-18T09:18:04.347Z,51.79
2022-12-18T09:19:04.328Z,51.62
2022-12-18T09:20:08.410Z,50.35
2022-12-18T09:21:04.356Z,49.91
2022-12-18T09:22:04.273Z,49.76
2022-12-18T09:23:04.272Z,50.25
2022-12-18T09:24:04.316Z,49.76
2022-12-18T09:25:04.361Z,50.46
2022-12-18T09:26:04.213Z,50.07
2022-12-18T09:27:04.211Z,50.90
2022-12-18T09:28:04.175Z,50.40
2022-12-18T09:29:04.171Z,50.82
2022-12-18T09:30:04.406Z,50.77
2022-12-18T09:31:04.154Z,51.08
2022-12-18T09:32:04.106Z,49.81
2022-12-18T09:33:04.089Z,49.94
2022-12-18T09:34:04.078Z,50.21
2022-12-18T09:35:04.104Z,49.04
2022-12-18T09:36:04.051Z,49.43
2022-12-18T09:37:04.026Z,47.53
2022-12-18T09:38:04.020Z,46.66
2022-12-18T09:39:08.163Z,46.33
2022-12-18T09:40:05.089Z,46.74
2022-12-18T09:41:03.962Z,46.12
2022-12-18T09:42:04.973Z,46.10
2022-12-18T09:43:03.928Z,45.71
2022-12-18T09:44:03.951Z,44.96
2022-12-18T09:45:04.055Z,45.17
2022-12-18T09:46:03.993Z,45.38
2022-12-18T09:47:03.853Z,45.13
2022-12-18T09:48:03.841Z,45.09
2022-12-18T09:49:03.820Z,45.40
2022-12-18T09:50:03.851Z,45.19
2022-12-18T09:51:03.809Z,45.21
2022-12-18T09:52:03.776Z,45.73
2022-12-18T09:53:03.772Z,46.35
2022-12-18T09:54:03.732Z,45.36
2022-12-18T09:55:03.757Z,46.31
2022-12-18T09:56:03.772Z,47.76
2022-12-18T09:57:03.695Z,47.76
2022-12-18T09:58:03.670Z,47.78
2022-12-18T09:59:03.653Z,48.32
2022-12-18T10:00:03.677Z,49.35
2022-12-18T10:01:03.621Z,48.86
2022-12-18T10:02:03.750Z,48.96
2022-12-18T10:03:03.781Z,49.46
2022-12-18T10:04:03.737Z,49.02
2022-12-18T10:05:03.683Z,48.50
2022-12-18T10:06:03.631Z,47.24
2022-12-18T10:07:08.931Z,47.22
2022-12-18T10:08:05.615Z,47.71
2022-12-18T10:09:03.580Z,46.89
2022-12-18T10:10:03.585Z,46.99
2022-12-18T10:11:03.584Z,46.58
2022-12-18T10:12:03.606Z,46.60
2022-12-18T10:13:04.852Z,47.63
2022-12-18T10:14:04.521Z,48.17
2022-12-18T10:15:03.480Z,48.33
2022-12-18T10:16:03.458Z,46.97
2022-12-18T10:17:03.439Z,47.17
2022-12-18T10:18:03.425Z,47.69
2022-12-18T10:19:03.415Z,46.33
2022-12-18T10:20:03.373Z,46.95
2022-12-18T10:21:03.378Z,46.86
2022-12-18T10:22:03.378Z,46.02
2022-12-18T10:23:03.370Z,45.50
2022-12-18T10:24:03.350Z,46.78
2022-12-18T10:25:03.361Z,47.51
2022-12-18T10:26:03.295Z,47.22
2022-12-18T10:27:03.306Z,48.27
2022-12-18T10:28:08.765Z,48.36
2022-12-18T10:29:05.845Z,47.11
2022-12-18T10:30:04.236Z,47.71
2022-12-18T10:31:03.299Z,47.80
2022-12-18T10:32:03.312Z,46.37
2022-12-18T10:33:03.204Z,48.07
2022-12-18T10:34:03.171Z,48.33
2022-12-18T10:35:03.312Z,47.32
2022-12-18T10:36:03.162Z,47.02
2022-12-18T10:37:03.094Z,48.46
2022-12-18T10:38:03.148Z,48.27
2022-12-18T10:39:03.134Z,49.46
2022-12-18T10:40:03.115Z,49.79
2022-12-18T10:41:03.075Z,50.18
2022-12-18T10:42:03.079Z,49.43
2022-12-18T10:43:02.991Z,49.22
2022-12-18T10:44:03.051Z,49.90
2022-12-18T10:45:02.986Z,50.21
2022-12-18T10:46:03.035Z,51.50
2022-12-18T10:47:06.160Z,51.08
2022-12-18T10:48:03.960Z,50.92
2022-12-18T10:49:02.942Z,52.45
2022-12-18T10:50:02.928Z,52.25
2022-12-18T10:51:12.896Z,51.73
2022-12-18T10:52:04.940Z,52.06
2022-12-18T10:53:02.931Z,52.79
2022-12-18T10:54:02.890Z,52.81
2022-12-18T10:55:02.803Z,53.15
2022-12-18T10:56:02.833Z,53.33
2022-12-18T10:57:02.788Z,53.33
2022-12-18T10:58:02.791Z,53.23
2022-12-18T10:59:02.755Z,52.92
2022-12-18T11:00:02.740Z,53.51
2022-12-18T11:01:08.573Z,52.09
2022-12-18T11:02:03.942Z,52.52
2022-12-18T11:03:02.769Z,53.09
2022-12-18T11:04:03.005Z,54.26
2022-12-18T11:05:02.663Z,55.98
2022-12-18T11:06:02.667Z,55.35
2022-12-18T11:07:02.671Z,57.28
2022-12-18T11:08:02.630Z,57.54
2022-12-18T11:09:05.360Z,58.45
2022-12-18T11:10:03.541Z,58.06
2022-12-18T11:11:02.555Z,58.29
2022-12-18T11:12:02.483Z,59.16
2022-12-18T11:13:02.499Z,59.47
2022-12-18T11:14:02.502Z,59.57
2022-12-18T11:15:02.440Z,59.78
2022-12-18T11:16:02.521Z,60.93
2022-12-18T11:17:24.803Z,60.22
2022-12-18T11:18:04.513Z,60.67
2022-12-18T11:19:02.452Z,61.64
2022-12-18T11:20:02.386Z,61.43
2022-12-18T11:21:02.427Z,62.34
2022-12-18T11:22:02.313Z,61.43
2022-12-18T11:23:02.248Z,61.64
2022-12-18T11:24:02.253Z,61.74
2022-12-18T11:25:32.168Z,61.54
2022-12-18T11:26:04.228Z,62.40
2022-12-18T11:27:02.186Z,62.60
2022-12-18T11:28:02.170Z,63.02
2022-12-18T11:29:02.142Z,63.37
2022-12-18T11:30:02.151Z,64.54
2022-12-18T11:31:02.174Z,64.54
2022-12-18T11:32:02.099Z,65.00
2022-12-18T11:33:02.088Z,64.50
2022-12-18T11:35:04.120Z,66.83
2022-12-18T11:36:02.068Z,67.57
2022-12-18T11:37:02.032Z,67.05
2022-12-18T11:38:02.005Z,67.22
2022-12-18T11:39:01.986Z,67.36
2022-12-18T11:40:01.971Z,67.12
2022-12-18T11:41:01.970Z,67.33
2022-12-18T11:42:01.921Z,67.43
2022-12-18T11:43:01.920Z,66.80
2022-12-18T11:44:01.887Z,66.60
2022-12-18T11:45:01.889Z,66.88
2022-12-18T11:46:01.994Z,66.25
2022-12-18T11:47:01.880Z,66.11
2022-12-18T11:48:01.829Z,66.11
2022-12-18T11:49:01.808Z,65.46
2022-12-18T11:50:01.802Z,64.83
2022-12-18T11:51:01.880Z,65.07
2022-12-18T11:52:01.753Z,64.86
2022-12-18T11:53:05.956Z,64.97
2022-12-18T11:54:02.735Z,64.89
2022-12-18T11:55:01.702Z,65.94
2022-12-18T11:56:01.716Z,64.47
2022-12-18T11:57:01.666Z,65.62
2022-12-18T11:58:01.661Z,66.25
2022-12-18T11:59:01.636Z,65.76
2022-12-18T12:00:01.646Z,66.28
2022-12-18T12:01:01.658Z,66.60
2022-12-18T12:02:01.744Z,65.86
2022-12-18T12:03:01.653Z,66.28
2022-12-18T12:04:01.563Z,66.52
2022-12-18T12:05:01.533Z,66.83
2022-12-18T12:06:01.553Z,66.73
2022-12-18T12:07:03.476Z,67.57
2022-12-18T12:08:02.546Z,66.94
2022-12-18T12:09:01.471Z,66.83
2022-12-18T12:10:01.463Z,67.46
2022-12-18T12:11:01.422Z,67.36
2022-12-18T12:12:01.474Z,66.52
2022-12-18T12:13:01.411Z,66.83
2022-12-18T12:14:01.375Z,66.94
2022-12-18T12:15:01.376Z,66.70
2022-12-18T12:16:01.372Z,67.46
2022-12-18T12:17:01.427Z,67.25
2022-12-18T12:18:01.308Z,67.05
2022-12-18T12:19:01.300Z,67.46
2022-12-18T12:20:01.264Z,68.54
2022-12-18T12:21:01.262Z,68.47
2022-12-18T12:22:01.271Z,68.33
2022-12-18T12:23:01.283Z,69.10
2022-12-18T12:24:01.200Z,68.47
2022-12-18T12:25:01.186Z,68.65
2022-12-18T12:26:01.161Z,68.57
2022-12-18T12:27:01.211Z,68.23
2022-12-18T12:28:01.126Z,68.68
2022-12-18T12:29:01.114Z,67.84
2022-12-18T12:30:01.129Z,68.26
2022-12-18T12:31:01.074Z,68.89
2022-12-18T12:32:01.244Z,69.10
2022-12-18T12:33:01.038Z,69.55
2022-12-18T12:34:01.037Z,69.62
2022-12-18T12:35:06.076Z,69.34
2022-12-18T12:36:02.997Z,70.07
2022-12-18T12:37:01.011Z,69.23
2022-12-18T12:38:00.974Z,70.39
2022-12-18T12:39:01.006Z,70.07
2022-12-18T12:40:07.267Z,69.86
2022-12-18T12:41:03.369Z,70.39
2022-12-18T12:42:01.935Z,70.39
2022-12-18T12:43:00.874Z,70.28
2022-12-18T12:44:00.858Z,70.15
2022-12-18T12:45:00.834Z,70.15
2022-12-18T12:46:00.865Z,70.25
2022-12-18T12:47:00.826Z,69.20
2022-12-18T12:48:00.793Z,69.41
2022-12-18T12:49:00.762Z,69.93
2022-12-18T12:50:00.743Z,69.97
2022-12-18T12:51:00.729Z,69.93
2022-12-18T12:52:00.745Z,70.07
2022-12-18T12:53:00.690Z,70.50
2022-12-18T12:54:00.681Z,70.60